createdAt,value
2018-09-30T00:00:30.099Z,61.77
2018-09-30T00:02:58.743Z,62.14
2018-09-30T00:05:27.398Z,61.48
2018-09-30T00:07:56.063Z,61.85
2018-09-30T00:10:24.692Z,62.26
2018-09-30T00:12:53.403Z,62.19
2018-09-30T00:15:22.069Z,62.07
2018-09-30T00:17:50.714Z,62.72
2018-09-30T00:20:19.364Z,62.90
2018-09-30T00:22:48.045Z,63.48
2018-09-30T00:25:21.999Z,63.42
2018-09-30T00:27:50.761Z,63.96
2018-09-30T00:30:19.479Z,63.57
2018-09-30T00:32:48.283Z,63.71
2018-09-30T00:35:16.968Z,64.06
2018-09-30T00:37:45.752Z,63.27
2018-09-30T00:40:14.453Z,64.04
2018-09-30T00:42:43.119Z,64.02
2018-09-30T00:45:11.799Z,63.98
2018-09-30T00:47:40.532Z,64.58
2018-09-30T00:50:09.196Z,64.92
2018-09-30T00:52:37.916Z,64.78
2018-09-30T00:55:06.684Z,64.61
2018-09-30T00:57:35.345Z,64.85
2018-09-30T01:00:05.812Z,65.01
2018-09-30T01:02:34.588Z,65.43
2018-09-30T01:05:03.748Z,65.01
2018-09-30T01:07:32.515Z,65.36
2018-09-30T01:10:01.247Z,65.45
2018-09-30T01:12:29.920Z,65.30
2018-09-30T01:14:58.568Z,66.01
2018-09-30T01:17:27.210Z,65.88
2018-09-30T01:19:55.901Z,66.12
2018-09-30T01:22:24.645Z,66.02
2018-09-30T01:24:53.400Z,65.89
2018-09-30T01:27:22.090Z,66.30
2018-09-30T01:29:50.787Z,66.09
2018-09-30T01:32:19.420Z,66.43
2018-09-30T01:34:48.176Z,66.71
2018-09-30T01:37:16.798Z,66.73
2018-09-30T01:39:45.448Z,67.72
2018-09-30T01:42:14.186Z,67.64
2018-09-30T01:44:42.896Z,67.37
2018-09-30T01:47:11.567Z,67.60
2018-09-30T01:49:40.266Z,68.19
2018-09-30T01:52:20.055Z,68.67
2018-09-30T01:54:48.796Z,68.35
2018-09-30T01:57:17.498Z,68.58
2018-09-30T01:59:46.217Z,69.01
2018-09-30T02:02:14.923Z,69.48
2018-09-30T02:04:43.607Z,70.09
2018-09-30T02:07:12.305Z,70.87
2018-09-30T02:09:41.062Z,70.54
2018-09-30T02:12:09.779Z,70.90
2018-09-30T02:14:38.538Z,70.95
2018-09-30T02:17:07.183Z,71.46
2018-09-30T02:19:35.872Z,71.43
2018-09-30T02:22:04.513Z,71.01
2018-09-30T02:24:33.207Z,71.55
2018-09-30T02:27:01.909Z,71.34
2018-09-30T02:29:30.604Z,71.36
2018-09-30T02:31:59.303Z,71.99
2018-09-30T02:34:28.004Z,71.73
2018-09-30T02:36:56.700Z,71.78
2018-09-30T02:39:25.418Z,73.06
2018-09-30T02:41:54.216Z,72.77
2018-09-30T02:44:22.872Z,72.65
2018-09-30T02:46:51.510Z,72.53
2018-09-30T02:49:20.286Z,72.51
2018-09-30T02:51:48.973Z,72.68
2018-09-30T02:54:17.607Z,72.60
2018-09-30T02:56:46.271Z,72.82
2018-09-30T02:59:14.912Z,73.13
2018-09-30T03:01:43.637Z,73.28
2018-09-30T03:04:12.363Z,73.34
2018-09-30T03:06:46.291Z,73.41
2018-09-30T03:09:17.155Z,73.46
2018-09-30T03:11:45.840Z,73.33
2018-09-30T03:14:15.795Z,73.38
2018-09-30T03:16:45.224Z,73.04
2018-09-30T03:19:14.252Z,72.72
2018-09-30T03:21:42.907Z,72.83
2018-09-30T03:24:12.340Z,72.65
2018-09-30T03:26:41.798Z,72.70
2018-09-30T03:29:10.584Z,73.27
2018-09-30T03:31:39.285Z,72.48
2018-09-30T03:34:08.287Z,73.00
2018-09-30T03:36:36.971Z,72.74
2018-09-30T03:39:07.280Z,73.07
2018-09-30T03:41:36.296Z,73.04
2018-09-30T03:44:04.988Z,73.10
2018-09-30T03:46:33.776Z,73.17
2018-09-30T03:49:02.439Z,73.02
2018-09-30T03:51:31.084Z,73.04
2018-09-30T03:53:59.808Z,73.05
2018-09-30T03:56:28.551Z,72.96
2018-09-30T03:58:57.202Z,73.31
2018-09-30T04:01:26.068Z,73.39
2018-09-30T04:03:54.893Z,73.48
2018-09-30T04:06:23.568Z,73.39
2018-09-30T04:08:52.553Z,73.48
2018-09-30T04:11:21.355Z,73.39
2018-09-30T04:13:50.065Z,73.73
2018-09-30T04:16:18.823Z,73.68
2018-09-30T04:18:47.556Z,73.61
2018-09-30T04:21:16.232Z,73.94
2018-09-30T04:23:44.926Z,73.97
2018-09-30T04:26:13.587Z,74.02
2018-09-30T04:28:42.343Z,73.84
2018-09-30T04:31:11.034Z,73.75
2018-09-30T04:33:39.748Z,73.91
2018-09-30T04:36:08.433Z,73.82
2018-09-30T04:38:37.125Z,73.78
2018-09-30T04:41:05.856Z,73.80
2018-09-30T04:43:34.484Z,73.93
2018-09-30T04:46:03.127Z,73.78
2018-09-30T04:48:31.772Z,73.79
2018-09-30T04:51:00.428Z,73.94
2018-09-30T04:53:29.166Z,73.15
2018-09-30T04:55:57.819Z,72.75
2018-09-30T04:58:26.450Z,71.94
2018-09-30T05:00:55.220Z,71.59
2018-09-30T05:03:23.949Z,71.09
2018-09-30T05:05:52.627Z,71.15
2018-09-30T05:08:21.321Z,72.04
2018-09-30T05:10:50.032Z,72.25
2018-09-30T05:13:18.685Z,72.57
2018-09-30T05:15:47.417Z,72.76
2018-09-30T05:18:16.146Z,72.87
2018-09-30T05:20:44.794Z,73.13
2018-09-30T05:23:13.459Z,73.43
2018-09-30T05:25:42.226Z,72.53
2018-09-30T05:28:10.885Z,72.45
2018-09-30T05:30:39.631Z,73.03
2018-09-30T05:33:08.331Z,72.86
2018-09-30T05:35:37.024Z,71.78
2018-09-30T05:38:05.697Z,70.40
2018-09-30T05:40:34.438Z,68.66
2018-09-30T05:43:03.145Z,67.48
2018-09-30T05:45:31.803Z,66.42
2018-09-30T05:48:00.733Z,64.94
2018-09-30T05:50:29.443Z,62.84
2018-09-30T05:52:58.103Z,62.21
2018-09-30T05:55:26.816Z,60.66
2018-09-30T05:57:55.635Z,60.88
2018-09-30T06:00:24.388Z,60.31
2018-09-30T06:02:53.080Z,60.18
2018-09-30T06:05:21.728Z,58.39
2018-09-30T06:07:50.458Z,58.34
2018-09-30T06:10:19.188Z,57.24
2018-09-30T06:12:47.823Z,56.80
2018-09-30T06:15:16.493Z,57.55
2018-09-30T06:17:45.196Z,56.90
2018-09-30T06:20:13.803Z,58.16
2018-09-30T06:22:42.559Z,60.15
2018-09-30T06:25:11.257Z,59.96
2018-09-30T06:27:39.992Z,59.32
2018-09-30T06:30:08.813Z,57.51
2018-09-30T06:32:37.449Z,57.06
2018-09-30T06:35:06.143Z,57.84
2018-09-30T06:37:34.912Z,58.88
2018-09-30T06:40:03.572Z,56.15
2018-09-30T06:42:32.247Z,55.54
2018-09-30T06:45:01.155Z,53.83
2018-09-30T06:47:29.736Z,54.53
2018-09-30T06:49:58.367Z,54.33
2018-09-30T06:52:27.089Z,55.51
2018-09-30T06:54:55.784Z,58.77
2018-09-30T06:57:24.442Z,60.98
2018-09-30T06:59:53.140Z,62.13
2018-09-30T07:02:21.824Z,62.55
2018-09-30T07:04:50.711Z,62.54
2018-09-30T07:07:19.301Z,62.80
2018-09-30T07:09:48.288Z,62.77
2018-09-30T07:12:17.049Z,62.12
2018-09-30T07:14:45.813Z,61.53
2018-09-30T07:17:14.627Z,61.75
2018-09-30T07:19:43.328Z,62.42
2018-09-30T07:22:12.084Z,61.55
2018-09-30T07:24:40.820Z,59.98
2018-09-30T07:27:09.579Z,59.26
2018-09-30T07:29:38.273Z,59.03
2018-09-30T07:32:06.944Z,59.47
2018-09-30T07:34:35.687Z,60.12
2018-09-30T07:37:04.381Z,59.13
2018-09-30T07:39:33.237Z,58.68
2018-09-30T07:42:01.969Z,59.05
2018-09-30T07:44:30.684Z,59.72
2018-09-30T07:46:59.437Z,59.78
2018-09-30T07:49:28.313Z,59.17
2018-09-30T07:51:56.952Z,59.41
2018-09-30T07:54:25.683Z,59.00
2018-09-30T07:56:54.359Z,58.89
2018-09-30T07:59:23.027Z,58.89
2018-09-30T08:01:51.743Z,58.60
2018-09-30T08:04:20.461Z,58.54
2018-09-30T08:06:49.178Z,57.84
2018-09-30T08:09:17.826Z,57.67
2018-09-30T08:11:46.488Z,57.65
2018-09-30T08:14:15.187Z,57.47
2018-09-30T08:16:43.919Z,57.84
2018-09-30T08:19:12.595Z,57.88
2018-09-30T08:21:41.268Z,56.63
2018-09-30T08:24:10.333Z,55.16
2018-09-30T08:26:39.142Z,53.78
2018-09-30T08:29:07.844Z,51.27
2018-09-30T08:31:36.480Z,51.36
2018-09-30T08:34:05.222Z,52.53
2018-09-30T08:36:33.904Z,52.20
2018-09-30T08:39:02.596Z,50.67
2018-09-30T08:41:31.272Z,51.99
2018-09-30T08:44:00.028Z,51.23
2018-09-30T08:46:28.717Z,52.19
2018-09-30T08:48:57.555Z,52.46
2018-09-30T08:51:26.187Z,52.66
2018-09-30T08:53:54.875Z,51.63
2018-09-30T08:56:23.556Z,52.78
2018-09-30T08:58:52.314Z,53.30
2018-09-30T09:01:21.390Z,53.88
2018-09-30T09:03:50.151Z,52.99
2018-09-30T09:06:18.942Z,52.04
2018-09-30T09:08:47.590Z,52.33
2018-09-30T09:11:16.328Z,52.80
2018-09-30T09:13:45.150Z,53.10
2018-09-30T09:16:13.828Z,53.26
2018-09-30T09:18:42.515Z,52.42
2018-09-30T09:21:11.316Z,53.36
2018-09-30T09:23:40.058Z,53.56
2018-09-30T09:26:08.736Z,54.33
2018-09-30T09:28:37.486Z,53.66
2018-09-30T09:31:06.284Z,52.97
2018-09-30T09:33:34.947Z,51.48
2018-09-30T09:36:03.708Z,49.78
2018-09-30T09:38:32.405Z,48.03
2018-09-30T09:41:01.109Z,48.16
2018-09-30T09:43:29.905Z,47.95
2018-09-30T09:45:58.716Z,48.07
2018-09-30T09:48:27.376Z,48.41
2018-09-30T09:50:56.296Z,48.51
2018-09-30T09:53:25.001Z,48.57
2018-09-30T09:55:53.684Z,48.07
2018-09-30T09:58:22.309Z,49.17
2018-09-30T10:00:51.233Z,49.10
2018-09-30T10:03:19.977Z,48.88
2018-09-30T10:05:48.781Z,49.46
2018-09-30T10:08:17.566Z,50.58
2018-09-30T10:10:46.331Z,51.17
2018-09-30T10:13:15.167Z,51.79
2018-09-30T10:15:43.774Z,51.73
2018-09-30T10:18:12.817Z,51.86
2018-09-30T10:20:41.495Z,52.14
2018-09-30T10:23:10.184Z,52.08
2018-09-30T10:25:38.864Z,52.12
2018-09-30T10:28:07.573Z,52.32
2018-09-30T10:30:36.400Z,52.75
2018-09-30T10:33:05.284Z,53.17
2018-09-30T10:35:34.014Z,53.48
2018-09-30T10:38:02.753Z,53.50
2018-09-30T10:40:31.456Z,53.06
2018-09-30T10:43:00.154Z,53.15
2018-09-30T10:45:28.988Z,53.76
2018-09-30T10:47:57.814Z,54.86
2018-09-30T10:50:26.849Z,54.78
2018-09-30T10:52:55.508Z,54.36
2018-09-30T10:55:24.430Z,54.82
2018-09-30T10:57:53.012Z,54.71
2018-09-30T11:00:21.720Z,55.48
2018-09-30T11:02:50.567Z,55.57
2018-09-30T11:05:19.299Z,55.70
2018-09-30T11:07:48.220Z,55.58
2018-09-30T11:10:16.944Z,55.80
2018-09-30T11:12:45.700Z,56.24
2018-09-30T11:15:14.374Z,57.71
2018-09-30T11:17:43.169Z,58.15
2018-09-30T11:20:12.009Z,57.75
2018-09-30T11:22:40.750Z,57.60
2018-09-30T11:25:09.983Z,57.70
2018-09-30T11:27:39.113Z,58.39
2018-09-30T11:30:10.935Z,57.48
2018-09-30T11:32:40.202Z,57.84
2018-09-30T11:35:09.291Z,58.30
2018-09-30T11:37:38.480Z,58.80
2018-09-30T11:40:08.104Z,58.77
2018-09-30T11:42:37.263Z,59.70
2018-09-30T11:45:05.978Z,59.08
2018-09-30T11:47:34.677Z,59.06
2018-09-30T11:50:03.454Z,59.62
2018-09-30T11:52:32.329Z,60.59
2018-09-30T11:55:01.044Z,59.67
2018-09-30T11:57:29.816Z,59.67
2018-09-30T11:59:58.603Z,60.05
2018-09-30T12:02:27.370Z,59.93
2018-09-30T12:04:56.184Z,60.39
2018-09-30T12:07:24.985Z,59.81
2018-09-30T12:09:53.669Z,60.62
2018-09-30T12:12:22.332Z,60.05
2018-09-30T12:14:51.075Z,59.29
2018-09-30T12:17:19.742Z,60.10
2018-09-30T12:19:48.420Z,58.87
2018-09-30T12:22:17.178Z,58.96
2018-09-30T12:24:45.889Z,59.14
2018-09-30T12:27:14.608Z,59.64
2018-09-30T12:29:43.276Z,60.11
2018-09-30T12:32:12.111Z,59.60
2018-09-30T12:34:41.204Z,59.69
2018-09-30T12:37:09.988Z,59.31
2018-09-30T12:39:38.658Z,59.45
2018-09-30T12:42:07.305Z,58.93
2018-09-30T12:44:35.975Z,58.67
2018-09-30T12:47:04.993Z,58.22
2018-09-30T12:49:33.640Z,57.65
2018-09-30T12:52:02.307Z,57.62
2018-09-30T12:54:31.000Z,58.15
2018-09-30T12:56:59.766Z,57.40
2018-09-30T12:59:28.428Z,57.58
2018-09-30T13:01:57.089Z,57.93
2018-09-30T13:04:25.764Z,59.20
2018-09-30T13:06:54.437Z,58.60
2018-09-30T13:09:23.155Z,59.53
2018-09-30T13:11:51.944Z,59.49
2018-09-30T13:14:20.771Z,59.69
2018-09-30T13:16:49.482Z,59.79
2018-09-30T13:19:18.205Z,59.70
2018-09-30T13:21:46.924Z,59.47
2018-09-30T13:24:15.617Z,59.28
2018-09-30T13:26:44.386Z,58.46
2018-09-30T13:29:13.169Z,58.79
2018-09-30T13:31:41.949Z,58.56
2018-09-30T13:34:10.756Z,57.75
2018-09-30T13:36:39.460Z,58.55
2018-09-30T13:39:09.751Z,59.24
2018-09-30T13:41:38.865Z,58.96
2018-09-30T13:44:07.676Z,58.41
2018-09-30T13:46:36.942Z,59.41
2018-09-30T13:49:05.666Z,59.13
2018-09-30T13:51:34.449Z,59.03
2018-09-30T13:54:03.189Z,60.12
2018-09-30T13:56:32.009Z,60.88
2018-09-30T13:59:00.717Z,60.66
2018-09-30T14:01:29.483Z,61.59
2018-09-30T14:03:58.429Z,61.62
2018-09-30T14:06:27.200Z,62.29
2018-09-30T14:08:55.988Z,62.60
2018-09-30T14:11:24.860Z,62.07
2018-09-30T14:13:53.585Z,62.61
2018-09-30T14:16:22.340Z,63.34
2018-09-30T14:18:51.104Z,63.21
2018-09-30T14:21:19.837Z,63.81
2018-09-30T14:23:48.669Z,64.14
2018-09-30T14:26:17.554Z,64.53
2018-09-30T14:36:17.923Z,65.71
2018-09-30T14:38:46.740Z,66.00
2018-09-30T14:41:15.507Z,65.92
2018-09-30T14:43:44.420Z,65.55
2018-09-30T14:46:13.191Z,65.63
2018-09-30T14:48:42.063Z,66.23
2018-09-30T14:51:10.878Z,65.83
2018-09-30T14:53:39.588Z,66.69
2018-09-30T14:56:08.275Z,66.83
2018-09-30T14:58:37.127Z,67.04
2018-09-30T15:01:05.873Z,67.48
2018-09-30T15:03:34.946Z,68.39
2018-09-30T15:06:03.712Z,68.09
2018-09-30T15:08:32.419Z,68.49
2018-09-30T15:11:01.084Z,68.58
2018-09-30T15:13:29.835Z,69.06
2018-09-30T15:15:58.631Z,69.67
2018-09-30T15:18:27.344Z,70.62
2018-09-30T15:20:56.576Z,70.37
2018-09-30T15:23:25.934Z,70.73
2018-09-30T15:25:54.688Z,72.08
2018-09-30T15:28:23.380Z,73.43
2018-09-30T15:30:52.154Z,74.01
2018-09-30T15:33:20.877Z,74.83
2018-09-30T15:35:49.742Z,74.36
2018-09-30T15:38:18.405Z,74.89
2018-09-30T15:40:47.155Z,75.13
2018-09-30T15:43:15.873Z,75.36
2018-09-30T15:45:44.688Z,75.70
2018-09-30T15:48:13.432Z,76.58
2018-09-30T15:50:42.177Z,77.82
2018-09-30T15:53:10.836Z,79.11
2018-09-30T15:55:39.604Z,79.61
2018-09-30T15:58:08.308Z,80.47
2018-09-30T16:00:37.068Z,80.84
2018-09-30T16:03:05.744Z,80.83
2018-09-30T16:05:34.544Z,81.92
2018-09-30T16:08:03.356Z,81.73
2018-09-30T16:10:32.350Z,82.48
2018-09-30T16:13:01.181Z,82.17
2018-09-30T16:15:29.848Z,83.12
2018-09-30T16:17:58.718Z,82.92
2018-09-30T16:20:27.454Z,83.46
2018-09-30T16:22:56.115Z,83.07
2018-09-30T16:25:24.915Z,83.03
2018-09-30T16:27:53.725Z,82.94
2018-09-30T16:30:22.580Z,84.02
2018-09-30T16:32:51.302Z,84.34
2018-09-30T16:35:20.214Z,84.42
2018-09-30T16:37:48.978Z,85.11
2018-09-30T16:40:17.686Z,85.66
2018-09-30T16:42:46.379Z,85.76
2018-09-30T16:45:15.100Z,86.54
2018-09-30T16:47:43.824Z,86.84
2018-09-30T16:50:12.625Z,86.97
2018-09-30T16:52:41.565Z,87.00
2018-09-30T16:55:10.602Z,85.84
2018-09-30T16:57:39.527Z,85.65
2018-09-30T17:00:09.622Z,85.93
2018-09-30T17:02:38.376Z,85.47
2018-09-30T17:05:07.206Z,85.63
2018-09-30T17:07:36.060Z,85.87
2018-09-30T17:10:05.001Z,85.47
2018-09-30T17:12:33.847Z,85.79
2018-09-30T17:15:02.656Z,84.83
2018-09-30T17:17:31.536Z,84.89
2018-09-30T17:20:00.262Z,84.80
2018-09-30T17:22:28.959Z,84.73
2018-09-30T17:24:57.808Z,84.94
2018-09-30T17:27:26.574Z,85.55
2018-09-30T17:29:55.630Z,84.94
2018-09-30T17:32:24.694Z,84.83
2018-09-30T17:34:53.353Z,84.94
2018-09-30T17:37:22.148Z,84.97
2018-09-30T17:39:51.097Z,84.93
2018-09-30T17:42:19.862Z,84.57
2018-09-30T17:44:48.548Z,84.40
2018-09-30T17:47:17.372Z,84.26
2018-09-30T17:49:45.996Z,83.77
2018-09-30T17:52:14.745Z,83.77
2018-09-30T17:54:44.527Z,83.12
2018-09-30T17:57:13.329Z,83.83
2018-09-30T17:59:42.240Z,83.46
2018-09-30T18:02:11.187Z,83.82
2018-09-30T18:04:40.276Z,83.22
2018-09-30T18:07:09.039Z,83.01
2018-09-30T18:09:38.154Z,82.63
2018-09-30T18:12:07.508Z,82.46
2018-09-30T18:14:36.422Z,82.21
2018-09-30T18:17:05.276Z,82.47
2018-09-30T18:19:34.159Z,82.27
2018-09-30T18:22:03.084Z,82.38
2018-09-30T18:24:32.172Z,82.66
2018-09-30T18:27:01.324Z,82.67
2018-09-30T18:29:30.392Z,82.82
2018-09-30T18:31:59.537Z,82.68
2018-09-30T18:34:28.512Z,82.25
2018-09-30T18:36:57.492Z,82.67
2018-09-30T18:39:26.383Z,82.50
2018-09-30T18:41:55.268Z,82.63
2018-09-30T18:44:24.250Z,82.50
2018-09-30T18:46:53.160Z,82.76
2018-09-30T18:49:21.945Z,82.84
2018-09-30T18:51:50.732Z,83.37
2018-09-30T18:54:19.551Z,83.29
2018-09-30T18:56:48.242Z,83.31
2018-09-30T18:59:17.054Z,83.25
2018-09-30T19:01:45.797Z,83.40
2018-09-30T19:04:14.493Z,84.08
2018-09-30T19:06:43.269Z,83.71
2018-09-30T19:09:12.009Z,83.79
2018-09-30T19:11:40.926Z,84.26
2018-09-30T19:14:09.661Z,84.18
2018-09-30T19:16:38.912Z,84.59
2018-09-30T19:19:07.992Z,84.72
2018-09-30T19:21:36.641Z,85.13
2018-09-30T19:24:05.303Z,85.03
2018-09-30T19:26:34.033Z,85.17
2018-09-30T19:29:03.004Z,85.87
2018-09-30T19:31:31.789Z,85.40
2018-09-30T19:34:00.453Z,85.66
2018-09-30T19:36:29.197Z,85.92
2018-09-30T19:38:57.955Z,85.54
2018-09-30T19:41:26.651Z,85.46
2018-09-30T19:43:55.351Z,85.81
2018-09-30T19:46:24.018Z,85.25
2018-09-30T19:48:52.950Z,85.00
2018-09-30T19:51:21.709Z,85.04
2018-09-30T19:53:50.358Z,85.40
2018-09-30T19:56:19.069Z,84.51
2018-09-30T19:58:47.954Z,84.93
2018-09-30T20:01:16.614Z,85.25
2018-09-30T20:03:45.359Z,84.93
2018-09-30T20:06:14.065Z,84.96
2018-09-30T20:08:42.892Z,84.71
2018-09-30T20:11:11.639Z,84.96
2018-09-30T20:13:40.401Z,84.83
2018-09-30T20:16:09.092Z,84.57
2018-09-30T20:18:37.762Z,84.38
2018-09-30T20:21:06.538Z,84.83
2018-09-30T20:23:35.196Z,85.01
2018-09-30T20:26:03.840Z,84.45
2018-09-30T20:28:32.520Z,84.42
2018-09-30T20:31:01.181Z,84.87
2018-09-30T20:33:29.840Z,84.68
2018-09-30T20:35:58.543Z,84.02
2018-09-30T20:38:27.206Z,83.77
2018-09-30T20:40:55.919Z,84.12
2018-09-30T20:43:24.580Z,83.83
2018-09-30T20:45:53.337Z,83.60
2018-09-30T20:48:21.979Z,83.61
2018-09-30T20:50:50.644Z,83.58
2018-09-30T20:53:19.380Z,83.15
2018-09-30T20:55:48.111Z,83.00
2018-09-30T20:58:16.860Z,83.39
2018-09-30T21:00:45.572Z,82.89
2018-09-30T21:03:14.292Z,82.95
2018-09-30T21:06:20.818Z,83.03
2018-09-30T21:08:49.473Z,82.71
2018-09-30T21:11:18.216Z,82.54
2018-09-30T21:13:47.060Z,82.74
2018-09-30T21:16:15.808Z,82.65
2018-09-30T21:18:44.674Z,82.41
2018-09-30T21:21:13.381Z,82.14
2018-09-30T21:23:42.141Z,82.38
2018-09-30T21:26:10.943Z,82.53
2018-09-30T21:28:39.651Z,82.90
2018-09-30T21:31:08.396Z,83.15
2018-09-30T21:33:37.080Z,82.97
2018-09-30T21:36:05.745Z,82.36
2018-09-30T21:38:34.461Z,82.68
2018-09-30T21:41:03.243Z,82.88
2018-09-30T21:43:32.108Z,82.85
2018-09-30T21:46:00.874Z,82.15
2018-09-30T21:48:29.691Z,81.98
2018-09-30T21:50:58.340Z,82.39
2018-09-30T21:53:27.055Z,82.30
2018-09-30T21:55:55.773Z,82.12
2018-09-30T21:58:24.533Z,82.71
2018-09-30T22:01:01.501Z,82.67
2018-09-30T22:03:30.397Z,82.14
2018-09-30T22:05:59.250Z,82.60
2018-09-30T22:08:28.021Z,82.09
2018-09-30T22:10:56.923Z,82.76
2018-09-30T22:13:25.703Z,82.37
2018-09-30T22:15:54.430Z,82.71
2018-09-30T22:18:23.133Z,82.59
2018-09-30T22:20:51.819Z,82.80
2018-09-30T22:23:20.546Z,82.38
2018-09-30T22:25:49.283Z,82.41
2018-09-30T22:28:17.993Z,82.87
2018-09-30T22:30:46.648Z,82.83
2018-09-30T22:33:15.319Z,83.19
2018-09-30T22:35:43.970Z,82.99
2018-09-30T22:38:12.718Z,83.62
2018-09-30T22:40:41.387Z,83.31
2018-09-30T22:43:10.075Z,83.50
2018-09-30T22:45:38.834Z,83.94
2018-09-30T22:48:07.635Z,84.48
2018-09-30T22:50:36.415Z,84.17
2018-09-30T22:53:05.112Z,84.04
2018-09-30T22:55:33.855Z,83.30
2018-09-30T22:58:02.880Z,83.63
2018-09-30T23:00:31.600Z,83.22
2018-09-30T23:03:00.354Z,83.05
2018-09-30T23:05:29.061Z,83.19
2018-09-30T23:07:57.704Z,83.31
2018-09-30T23:10:26.484Z,82.93
2018-09-30T23:12:55.236Z,82.69
2018-09-30T23:15:23.915Z,83.13
2018-09-30T23:17:52.639Z,83.13
2018-09-30T23:20:21.400Z,83.45
2018-09-30T23:22:50.077Z,83.59
2018-09-30T23:25:18.882Z,83.88
2018-09-30T23:27:47.583Z,83.78
2018-09-30T23:30:16.274Z,83.92
2018-09-30T23:32:44.934Z,83.57
2018-09-30T23:35:13.598Z,83.61
2018-09-30T23:37:42.269Z,84.29
2018-09-30T23:40:10.909Z,84.40
2018-09-30T23:42:39.596Z,84.33
2018-09-30T23:45:08.299Z,84.52
2018-09-30T23:47:37.022Z,84.31
2018-09-30T23:50:05.716Z,84.32
2018-09-30T23:52:34.451Z,84.23
2018-09-30T23:55:03.119Z,84.53
2018-09-30T23:57:31.773Z,84.31
